LFKBLIML

Guest
Details From LFKB - Bastia Poretta
To LIML - Milano Linate
Flight Number -
Tags decoded
Created
Modified
Stats Distance 185 nm / 343 km
Max Altitude 0 ft / 0 m
Waypoints 4
Social Downloads 3
Likes 0
Share VATSIM

Download

Looking for another format? Having issues loading an existing format? Contact us
Advertisement - Login to hide

Notes

Requested: LFKB VOG DIXER LIML

Route

LFKB VOG DIXER LIML

ID Type Via Altitude Latitude Longitude Leg Dist Tot Dist Heading (true) Name
O LFKB APT - 0 ft / 0 m 42.55251˚ 9.48371˚ - 0 nm - Bastia Poretta
VOG NDB - 0 ft / 0 m 44.96389˚ 8.97222˚ 146 nm 146 nm 351° / 351° VOGHERA NDB
DIXER FIX - 0 ft / 0 m 45.07833˚ 9.31667˚ 16 nm 162 nm 65° / 65° -
O LIML APT - 0 ft / 0 m 45.45030˚ 9.27280˚ 22 nm 185 nm 355° / 355° Milano Linate

Altitude Profile

Advertisement - Login to hide

Weather


0- 5 10 15 20 25 30 35+ Temperature / ° C

Clouds and Precipitation
Forecast for 2018-05-27 18:00 UTC. Updated 4 hours ago

Ground ~20,000 ft ~40,000 ft Winds

LFKB

Details ICAO LFKB (BIA)
Name Bastia Poretta
Region France
Timezone Europe/Paris (UTC+2.0)
Stats Elevation 25 ft / 8 m (AMSL)
Location 42.552508° 9.483709°
Runways 1
Magnetic Variation 2.534° E

METAR

LFKB 272130Z AUTO 14004KT CAVOK 19/17 Q1016 TEMPO BKN010 BKN100

Decode

TAF

TAF LFKB 272000Z 2721/2821 16006KT 9999 FEW020 SCT140 TEMPO 2721/2805 BKN010 BKN100 BECMG 2807/2809 04010KT TEMPO 2809/2816 SHRA SCT030TCU PROB40 TEMPO 2812/2815 VRB10G20KT 3000 TSRA BR BKN020 SCT025CB BKN050 TX24/2812Z TN17/2803Z

Decode

Departure Runways

ID Width Length Bearing (true) Bearing (mag) Surface Threshold Offset Overrun Length
16 148 ft / 45 m 8,273 ft / 2,522 m 162.83° 160.30° Concrete 0 ft / 0 m 131 ft / 40 m
34 148 ft / 45 m 8,273 ft / 2,522 m 342.84° 340.31° Concrete 0 ft / 0 m 0 ft / 0 m

LIML

Details ICAO LIML (LIN)
Name Milano Linate
Region Italy
Timezone Europe/Rome (UTC+2.0)
Stats Elevation 353 ft / 108 m (AMSL)
Location 45.450302° 9.272801°
Runways 2
Magnetic Variation 2.552° E

METAR

LIML 272120Z 06007KT 9999 SCT050 22/14 Q1018 NOSIG

Decode

TAF

TAF LIML 271700Z 2718/2818 VRB05KT 9999 SCT060 TEMPO 2718/2812 TSRA

Decode

Destination Runways

ID Width Length Bearing (true) Bearing (mag) Surface Threshold Offset Overrun Length
17 72 ft / 22 m 1,975 ft / 602 m 175.64° 173.09° Asphalt 200 ft / 61 m 0 ft / 0 m
18 197 ft / 60 m 8,017 ft / 2,443 m 175.67° 173.12° Asphalt 0 ft / 0 m 190 ft / 58 m
35 72 ft / 22 m 1,975 ft / 602 m 355.64° 353.09° Asphalt 200 ft / 61 m 0 ft / 0 m
36 197 ft / 60 m 8,017 ft / 2,443 m 355.68° 353.13° Asphalt 0 ft / 0 m 980 ft / 299 m

Approach Navaids

Runway Type Ident Frequency Range Bearing (true) Bearing (mag) Slope Elevation
36 Localiser ILNT 109.55 MHz 18 nm / 33 km 355.68° 353.12° - 353 ft / 108 m (AMSL)
36 Glidescope ILNT 109.55 MHz 10 nm / 19 km 355.68° 353.12° 3.00° 352 ft / 107 m (AMSL)
36 DME ILNT 109.55 MHz 25 nm / 46 km - - - 352 ft / 107 m (AMSL)

Popular Alternatives